createdAt,value
2019-02-25T00:00:37.625Z,1.44
2019-02-25T00:01:37.651Z,1.37
2019-02-25T00:02:37.601Z,1.33
2019-02-25T00:03:37.596Z,1.32
2019-02-25T00:04:37.581Z,1.43
2019-02-25T00:05:37.574Z,1.61
2019-02-25T00:06:37.605Z,1.60
2019-02-25T00:07:37.545Z,1.64
2019-02-25T00:08:37.535Z,1.76
2019-02-25T00:09:37.534Z,1.94
2019-02-25T00:10:37.522Z,2.08
2019-02-25T00:11:37.543Z,2.41
2019-02-25T00:12:37.498Z,2.58
2019-02-25T00:13:37.490Z,2.61
2019-02-25T00:14:37.475Z,2.63
2019-02-25T00:15:37.475Z,2.58
2019-02-25T00:16:37.466Z,2.66
2019-02-25T00:17:37.480Z,2.73
2019-02-25T00:18:37.435Z,2.76
2019-02-25T00:19:37.431Z,2.76
2019-02-25T00:20:37.411Z,2.70
2019-02-25T00:21:37.452Z,2.81
2019-02-25T00:22:37.405Z,2.70
2019-02-25T00:23:37.384Z,2.74
2019-02-25T00:24:37.398Z,2.73
2019-02-25T00:25:37.367Z,2.59
2019-02-25T00:26:37.353Z,2.64
2019-02-25T00:27:37.377Z,2.59
2019-02-25T00:28:37.347Z,2.48
2019-02-25T00:29:37.567Z,2.44
2019-02-25T00:30:37.311Z,2.41
2019-02-25T00:31:37.300Z,2.35
2019-02-25T00:32:37.303Z,2.37
2019-02-25T00:33:37.320Z,2.33
2019-02-25T00:34:37.271Z,2.40
2019-02-25T00:35:37.268Z,2.53
2019-02-25T00:36:37.291Z,2.55
2019-02-25T00:37:37.285Z,2.67
2019-02-25T00:38:37.227Z,2.64
2019-02-25T00:39:37.228Z,2.52
2019-02-25T00:40:37.216Z,2.58
2019-02-25T00:41:37.206Z,2.41
2019-02-25T00:42:37.222Z,2.27
2019-02-25T00:43:37.180Z,2.09
2019-02-25T00:44:37.171Z,2.22
2019-02-25T00:45:37.162Z,2.30
2019-02-25T00:46:37.144Z,2.35
2019-02-25T00:47:37.173Z,2.38
2019-02-25T00:48:37.128Z,2.40
2019-02-25T00:49:37.123Z,2.38
2019-02-25T00:50:37.109Z,2.31
2019-02-25T00:51:37.105Z,2.19
2019-02-25T00:52:37.089Z,2.17
2019-02-25T00:53:37.115Z,2.10
2019-02-25T00:54:37.095Z,2.22
2019-02-25T00:55:37.129Z,2.23
2019-02-25T00:56:37.048Z,2.16
2019-02-25T00:57:37.044Z,2.17
2019-02-25T00:58:37.030Z,2.19
2019-02-25T00:59:37.012Z,2.01
2019-02-25T01:00:37.001Z,2.08
2019-02-25T01:01:37.032Z,2.01
2019-02-25T01:02:36.985Z,2.16
2019-02-25T01:03:36.972Z,2.33
2019-02-25T01:04:36.969Z,2.35
2019-02-25T01:05:36.965Z,2.59
2019-02-25T01:06:36.939Z,2.76
2019-02-25T01:07:36.973Z,2.73
2019-02-25T01:08:36.916Z,2.79
2019-02-25T01:09:36.918Z,2.73
2019-02-25T01:10:36.925Z,2.71
2019-02-25T01:11:36.909Z,2.66
2019-02-25T01:12:36.884Z,2.52
2019-02-25T01:13:37.904Z,2.35
2019-02-25T01:14:36.898Z,2.26
2019-02-25T01:15:36.983Z,2.20
2019-02-25T01:16:36.844Z,2.19
2019-02-25T01:17:36.829Z,2.33
2019-02-25T01:18:36.880Z,2.38
2019-02-25T01:19:36.840Z,2.40
2019-02-25T01:20:36.836Z,2.40
2019-02-25T01:21:36.786Z,2.37
2019-02-25T01:22:36.775Z,2.23
2019-02-25T01:23:36.819Z,2.28
2019-02-25T01:24:36.751Z,2.30
2019-02-25T01:25:36.775Z,2.27
2019-02-25T01:26:36.739Z,2.38
2019-02-25T01:27:36.748Z,2.35
2019-02-25T01:28:36.727Z,2.31
2019-02-25T01:29:36.707Z,2.38
2019-02-25T01:30:36.688Z,2.49
2019-02-25T01:31:36.681Z,2.53
2019-02-25T01:32:36.722Z,2.51
2019-02-25T01:33:36.660Z,2.46
2019-02-25T01:34:36.655Z,2.49
2019-02-25T01:35:36.647Z,2.34
2019-02-25T01:36:36.626Z,2.33
2019-02-25T01:37:36.627Z,2.20
2019-02-25T01:38:36.647Z,2.23
2019-02-25T01:39:36.624Z,2.27
2019-02-25T01:40:36.593Z,2.58
2019-02-25T01:41:36.579Z,2.64
2019-02-25T01:42:36.573Z,2.67
2019-02-25T01:43:36.564Z,2.56
2019-02-25T01:44:36.970Z,2.48
2019-02-25T01:45:37.299Z,2.58
2019-02-25T01:46:36.545Z,2.66
2019-02-25T01:47:36.529Z,2.59
2019-02-25T01:48:36.523Z,2.58
2019-02-25T01:49:36.530Z,2.48
2019-02-25T01:50:36.531Z,2.35
2019-02-25T01:51:36.475Z,2.30
2019-02-25T01:52:36.462Z,2.26
2019-02-25T01:53:36.451Z,2.22
2019-02-25T01:54:36.439Z,2.38
2019-02-25T01:55:36.440Z,2.52
2019-02-25T01:56:36.464Z,2.35
2019-02-25T01:57:36.413Z,2.45
2019-02-25T01:58:36.434Z,2.31
2019-02-25T01:59:36.393Z,2.30
2019-02-25T02:00:36.458Z,2.33
2019-02-25T02:01:36.380Z,2.27
2019-02-25T02:02:36.355Z,2.19
2019-02-25T02:03:36.351Z,2.26
2019-02-25T02:04:36.368Z,2.15
2019-02-25T02:05:36.330Z,2.17
2019-02-25T02:06:36.318Z,2.10
2019-02-25T02:07:36.309Z,2.02
2019-02-25T02:08:36.324Z,2.04
2019-02-25T02:09:36.317Z,1.90
2019-02-25T02:10:36.275Z,1.85
2019-02-25T02:11:36.268Z,1.93
2019-02-25T02:12:36.264Z,2.04
2019-02-25T02:13:36.251Z,1.89
2019-02-25T02:14:36.262Z,1.98
2019-02-25T02:15:36.260Z,1.98
2019-02-25T02:16:36.212Z,1.85
2019-02-25T02:17:36.204Z,1.76
2019-02-25T02:18:36.228Z,1.76
2019-02-25T02:19:36.183Z,1.85
2019-02-25T02:20:36.173Z,1.78
2019-02-25T02:21:36.163Z,1.69
2019-02-25T02:22:36.153Z,1.73
2019-02-25T02:23:36.174Z,1.76
2019-02-25T02:24:36.134Z,1.91
2019-02-25T02:25:36.136Z,2.08
2019-02-25T02:26:36.112Z,2.13
2019-02-25T02:27:36.101Z,2.17
2019-02-25T02:28:36.113Z,2.27
2019-02-25T02:29:36.085Z,2.27
2019-02-25T02:30:36.067Z,2.19
2019-02-25T02:31:36.078Z,2.16
2019-02-25T02:32:36.049Z,2.28
2019-02-25T02:33:36.042Z,2.22
2019-02-25T02:34:36.058Z,2.27
2019-02-25T02:35:36.017Z,2.23
2019-02-25T02:36:36.008Z,2.28
2019-02-25T02:37:36.007Z,2.38
2019-02-25T02:38:36.012Z,2.20
2019-02-25T02:39:35.973Z,2.23
2019-02-25T02:40:35.965Z,2.15
2019-02-25T02:41:35.953Z,2.17
2019-02-25T02:42:35.945Z,2.31
2019-02-25T02:43:35.963Z,2.27
2019-02-25T02:44:35.925Z,2.28
2019-02-25T02:45:35.925Z,2.40
2019-02-25T02:46:35.909Z,2.46
2019-02-25T02:47:35.896Z,2.56
2019-02-25T02:48:35.909Z,2.53
2019-02-25T02:49:35.873Z,2.63
2019-02-25T02:50:35.883Z,2.59
2019-02-25T02:51:35.866Z,2.49
2019-02-25T02:52:35.859Z,2.53
2019-02-25T02:53:35.859Z,2.37
2019-02-25T02:54:35.829Z,2.44
2019-02-25T02:55:35.811Z,2.53
2019-02-25T02:56:35.801Z,2.45
2019-02-25T02:57:35.801Z,2.45
2019-02-25T02:58:35.810Z,2.38
2019-02-25T02:59:35.777Z,2.48
2019-02-25T03:00:35.776Z,2.52
2019-02-25T03:01:35.746Z,2.51
2019-02-25T03:02:35.740Z,2.45
2019-02-25T03:03:35.755Z,2.35
2019-02-25T03:04:35.714Z,2.22
2019-02-25T03:05:35.706Z,2.16
2019-02-25T03:06:35.697Z,2.16
2019-02-25T03:07:35.689Z,2.19
2019-02-25T03:08:35.718Z,2.19
2019-02-25T03:09:35.665Z,2.17
2019-02-25T03:10:35.852Z,2.22
2019-02-25T03:11:35.857Z,2.22
2019-02-25T03:12:35.865Z,2.38
2019-02-25T03:13:35.840Z,2.44
2019-02-25T03:14:35.994Z,2.35
2019-02-25T03:15:35.902Z,2.31
2019-02-25T03:16:35.813Z,2.28
2019-02-25T03:17:35.832Z,2.16
2019-02-25T03:18:35.804Z,2.20
2019-02-25T03:19:35.993Z,2.37
2019-02-25T03:20:35.600Z,2.41
2019-02-25T03:21:35.580Z,2.37
2019-02-25T03:22:35.571Z,2.31
2019-02-25T03:23:35.580Z,2.31
2019-02-25T03:24:35.587Z,2.19
2019-02-25T03:25:35.639Z,2.17
2019-02-25T03:26:35.619Z,2.06
2019-02-25T03:27:35.539Z,1.89
2019-02-25T03:28:35.515Z,1.83
2019-02-25T03:29:35.603Z,1.79
2019-02-25T03:30:35.498Z,1.75
2019-02-25T03:31:35.498Z,1.57
2019-02-25T03:32:35.477Z,1.47
2019-02-25T03:33:35.567Z,1.33
2019-02-25T03:34:35.450Z,1.19
2019-02-25T03:35:35.454Z,1.16
2019-02-25T03:36:35.431Z,1.04
2019-02-25T03:37:35.431Z,0.98
2019-02-25T03:38:35.417Z,0.92
2019-02-25T03:39:35.486Z,0.78
2019-02-25T03:40:35.410Z,0.75
2019-02-25T03:41:35.384Z,0.68
2019-02-25T03:42:35.388Z,0.67
2019-02-25T03:43:35.472Z,0.71
2019-02-25T03:44:35.366Z,0.71
2019-02-25T03:45:35.331Z,0.67
2019-02-25T03:46:35.325Z,0.70
2019-02-25T03:47:35.332Z,0.68
2019-02-25T03:48:35.302Z,0.68
2019-02-25T03:49:35.381Z,0.70
2019-02-25T03:50:35.291Z,0.64
2019-02-25T03:51:35.297Z,0.71
2019-02-25T03:52:35.267Z,0.60
2019-02-25T03:53:35.259Z,0.51
2019-02-25T03:54:35.346Z,0.57
2019-02-25T03:55:35.241Z,0.72
2019-02-25T03:56:35.243Z,0.72
2019-02-25T03:57:36.179Z,0.79
2019-02-25T03:58:35.208Z,0.65
2019-02-25T03:59:35.299Z,0.68
2019-02-25T04:00:35.203Z,0.68
2019-02-25T04:01:35.179Z,0.60
2019-02-25T04:02:35.167Z,0.51
2019-02-25T04:03:35.161Z,0.48
2019-02-25T04:04:35.222Z,0.46
2019-02-25T04:05:35.141Z,0.39
2019-02-25T04:06:35.142Z,0.51
2019-02-25T04:07:35.121Z,0.64
2019-02-25T04:08:35.104Z,0.72
2019-02-25T04:09:35.177Z,0.79
2019-02-25T04:10:35.093Z,0.85
2019-02-25T04:11:35.079Z,0.80
2019-02-25T04:12:35.061Z,0.79
2019-02-25T04:13:35.062Z,0.72
2019-02-25T04:14:35.129Z,0.78
2019-02-25T04:15:35.041Z,0.90
2019-02-25T04:16:35.007Z,1.10
2019-02-25T04:17:35.026Z,1.44
2019-02-25T04:18:35.000Z,1.57
2019-02-25T04:19:35.059Z,1.46
2019-02-25T04:20:34.981Z,1.68
2019-02-25T04:21:34.972Z,1.94
2019-02-25T04:22:35.010Z,1.97
2019-02-25T04:23:34.954Z,1.78
2019-02-25T04:24:35.025Z,1.71
2019-02-25T04:25:35.026Z,1.62
2019-02-25T04:26:34.936Z,1.71
2019-02-25T04:27:34.920Z,1.82
2019-02-25T04:28:34.911Z,1.90
2019-02-25T04:29:34.891Z,2.12
2019-02-25T04:30:34.955Z,2.33
2019-02-25T04:31:34.870Z,2.51
2019-02-25T04:32:34.857Z,2.56
2019-02-25T04:33:34.846Z,2.48
2019-02-25T04:34:34.837Z,2.38
2019-02-25T04:35:34.890Z,2.27
2019-02-25T04:36:34.825Z,2.13
2019-02-25T04:37:34.798Z,2.01
2019-02-25T04:38:34.807Z,1.94
2019-02-25T04:39:34.780Z,1.93
2019-02-25T04:40:34.882Z,2.04
2019-02-25T04:41:34.771Z,2.22
2019-02-25T04:42:34.754Z,2.30
2019-02-25T04:43:34.757Z,2.48
2019-02-25T04:44:34.751Z,2.44
2019-02-25T04:45:34.790Z,2.48
2019-02-25T04:46:34.708Z,2.67
2019-02-25T04:47:34.715Z,2.85
2019-02-25T04:48:34.666Z,3.13
2019-02-25T04:49:34.656Z,3.12
2019-02-25T04:50:34.676Z,3.06
2019-02-25T04:51:34.633Z,2.92
2019-02-25T04:52:34.618Z,2.82
2019-02-25T04:53:34.617Z,2.51
2019-02-25T04:54:34.598Z,2.26
2019-02-25T04:55:34.614Z,2.31
2019-02-25T04:56:34.570Z,2.35
2019-02-25T04:57:34.557Z,2.73
2019-02-25T04:58:34.550Z,2.69
2019-02-25T04:59:34.540Z,2.84
2019-02-25T05:00:34.601Z,2.87
2019-02-25T05:01:34.528Z,2.84
2019-02-25T05:02:34.511Z,2.67
2019-02-25T05:03:34.500Z,2.92
2019-02-25T05:04:34.488Z,3.06
2019-02-25T05:05:34.515Z,3.03
2019-02-25T05:06:34.467Z,2.91
2019-02-25T05:07:34.463Z,3.02
2019-02-25T05:08:34.448Z,3.00
2019-02-25T05:09:34.443Z,2.91
2019-02-25T05:10:34.467Z,2.82
2019-02-25T05:11:34.412Z,2.69
2019-02-25T05:12:34.401Z,2.67
2019-02-25T05:13:34.410Z,2.85
2019-02-25T05:14:34.382Z,2.89
2019-02-25T05:15:34.401Z,2.91
2019-02-25T05:16:34.364Z,3.06
2019-02-25T05:17:34.355Z,3.16
2019-02-25T05:18:34.344Z,3.20
2019-02-25T05:19:34.341Z,3.34
2019-02-25T05:20:34.357Z,3.39
2019-02-25T05:21:34.307Z,3.50
2019-02-25T05:22:34.309Z,3.54
2019-02-25T05:23:34.294Z,3.52
2019-02-25T05:24:34.292Z,3.60
2019-02-25T05:25:34.293Z,3.44
2019-02-25T05:26:34.262Z,3.34
2019-02-25T05:27:34.251Z,3.43
2019-02-25T05:28:34.274Z,3.54
2019-02-25T05:29:34.242Z,3.46
2019-02-25T05:30:34.225Z,3.52
2019-02-25T05:31:34.235Z,3.43
2019-02-25T05:32:34.201Z,3.31
2019-02-25T05:33:34.183Z,3.34
2019-02-25T05:34:34.171Z,3.36
2019-02-25T05:35:34.219Z,3.44
2019-02-25T05:36:34.169Z,3.53
2019-02-25T05:37:34.151Z,3.50
2019-02-25T05:38:34.141Z,3.58
2019-02-25T05:39:34.129Z,3.53
2019-02-25T05:40:34.177Z,3.78
2019-02-25T05:41:34.173Z,3.83
2019-02-25T05:42:34.113Z,3.82
2019-02-25T05:43:34.090Z,3.86
2019-02-25T05:44:34.073Z,3.76
2019-02-25T05:45:34.091Z,3.79
2019-02-25T05:46:34.055Z,3.76
2019-02-25T05:47:34.048Z,3.86
2019-02-25T05:48:34.039Z,3.80
2019-02-25T05:49:34.025Z,3.78
2019-02-25T05:50:34.043Z,3.76
2019-02-25T05:51:33.998Z,3.64
2019-02-25T05:52:34.001Z,3.53
2019-02-25T05:53:33.983Z,3.49
2019-02-25T05:54:33.975Z,3.36
2019-02-25T05:55:34.094Z,3.44
2019-02-25T05:56:33.973Z,3.42
2019-02-25T05:57:33.949Z,3.47
2019-02-25T05:58:33.940Z,3.52
2019-02-25T05:59:33.921Z,3.50
2019-02-25T06:00:33.942Z,3.42
2019-02-25T06:01:33.906Z,3.65
2019-02-25T06:02:33.893Z,3.67
2019-02-25T06:03:33.910Z,3.53
2019-02-25T06:04:33.865Z,3.47
2019-02-25T06:05:33.856Z,3.34
2019-02-25T06:06:33.851Z,3.30
2019-02-25T06:07:33.834Z,3.25
2019-02-25T06:08:33.821Z,3.06
2019-02-25T06:09:33.856Z,3.12
2019-02-25T06:10:33.806Z,3.07
2019-02-25T06:11:33.844Z,3.12
2019-02-25T06:12:33.780Z,3.21
2019-02-25T06:13:33.804Z,3.12
2019-02-25T06:14:33.762Z,3.21
2019-02-25T06:15:33.754Z,3.24
2019-02-25T06:16:33.751Z,3.27
2019-02-25T06:17:33.745Z,3.20
2019-02-25T06:18:33.860Z,2.98
2019-02-25T06:19:33.716Z,3.05
2019-02-25T06:20:33.740Z,2.98
2019-02-25T06:21:33.691Z,2.95
2019-02-25T06:22:33.681Z,2.95
2019-02-25T06:23:33.679Z,2.76
2019-02-25T06:24:33.671Z,2.70
2019-02-25T06:25:33.683Z,2.67
2019-02-25T06:26:33.639Z,2.79
2019-02-25T06:27:33.632Z,3.02
2019-02-25T06:28:33.618Z,3.12
2019-02-25T06:29:33.610Z,3.20
2019-02-25T06:30:33.600Z,3.20
2019-02-25T06:31:33.623Z,3.09
2019-02-25T06:32:33.583Z,3.21
2019-02-25T06:33:33.568Z,3.25
2019-02-25T06:34:33.565Z,3.27
2019-02-25T06:35:33.554Z,3.21
2019-02-25T06:36:33.572Z,3.25
2019-02-25T06:37:33.526Z,3.43
2019-02-25T06:38:33.525Z,3.39
2019-02-25T06:39:33.512Z,3.50
2019-02-25T06:40:33.500Z,3.52
2019-02-25T06:41:33.523Z,3.42
2019-02-25T06:42:33.481Z,3.39
2019-02-25T06:43:33.462Z,3.57
2019-02-25T06:44:33.461Z,3.72
2019-02-25T06:45:33.449Z,4.00
2019-02-25T06:46:33.473Z,4.04
2019-02-25T06:47:33.429Z,4.29
2019-02-25T06:48:33.414Z,4.25
2019-02-25T06:49:33.402Z,4.43
2019-02-25T06:50:33.411Z,4.47
2019-02-25T06:51:33.411Z,4.67
2019-02-25T06:52:33.368Z,4.96
2019-02-25T06:53:33.365Z,5.27
2019-02-25T06:54:33.353Z,5.35
2019-02-25T06:55:34.336Z,5.53
2019-02-25T06:56:33.370Z,5.66
2019-02-25T06:57:33.339Z,5.81
2019-02-25T06:58:33.307Z,5.86
2019-02-25T06:59:33.303Z,5.91
2019-02-25T07:00:33.832Z,6.03
2019-02-25T07:01:33.833Z,5.91
2019-02-25T07:02:33.333Z,5.91
2019-02-25T07:03:33.297Z,5.91
2019-02-25T07:04:33.260Z,6.10
2019-02-25T07:05:33.940Z,6.25
2019-02-25T07:06:33.377Z,6.30
2019-02-25T07:07:33.832Z,6.46
2019-02-25T07:08:33.210Z,6.48
2019-02-25T07:09:33.370Z,6.65
2019-02-25T07:10:33.802Z,6.86
2019-02-25T07:11:33.176Z,6.87
2019-02-25T07:12:33.161Z,6.98
2019-02-25T07:13:33.164Z,6.95
2019-02-25T07:14:33.794Z,7.05
2019-02-25T07:15:33.143Z,6.87
2019-02-25T07:16:33.123Z,6.86
2019-02-25T07:17:33.115Z,7.05
2019-02-25T07:18:33.106Z,7.08
2019-02-25T07:19:33.096Z,7.19
2019-02-25T07:20:33.118Z,7.31
2019-02-25T07:21:33.068Z,7.15
2019-02-25T07:22:33.103Z,7.38
2019-02-25T07:23:33.076Z,7.53
2019-02-25T07:24:33.045Z,7.78
2019-02-25T07:25:33.044Z,7.96
2019-02-25T07:26:33.020Z,8.08
2019-02-25T07:27:33.019Z,8.17
2019-02-25T07:28:32.999Z,8.26
2019-02-25T07:29:33.034Z,8.30
2019-02-25T07:30:32.984Z,8.40
2019-02-25T07:31:32.994Z,8.55
2019-02-25T07:32:32.961Z,8.72
2019-02-25T07:33:32.943Z,8.71
2019-02-25T07:34:32.949Z,8.63
2019-02-25T07:35:32.936Z,8.73
2019-02-25T07:36:32.937Z,8.71
2019-02-25T07:37:32.905Z,8.71
2019-02-25T07:38:39.202Z,8.93
2019-02-25T07:39:33.879Z,9.04
2019-02-25T07:40:32.900Z,9.20
2019-02-25T07:41:32.859Z,8.99
2019-02-25T07:42:32.861Z,9.23
2019-02-25T07:43:32.863Z,9.61
2019-02-25T07:44:32.861Z,9.94
2019-02-25T07:45:32.817Z,9.71
2019-02-25T07:46:32.806Z,9.56
2019-02-25T07:47:32.798Z,9.57
2019-02-25T07:48:32.788Z,9.78
2019-02-25T07:49:32.799Z,9.81
2019-02-25T07:50:32.762Z,9.73
2019-02-25T07:51:32.756Z,9.71
2019-02-25T07:52:32.746Z,9.71
2019-02-25T07:53:32.732Z,9.78
2019-02-25T07:54:32.730Z,9.71
2019-02-25T07:55:32.742Z,9.70
2019-02-25T07:56:32.747Z,9.76
2019-02-25T07:57:32.692Z,9.94
2019-02-25T07:58:32.679Z,10.10
2019-02-25T07:59:32.672Z,10.19
2019-02-25T08:00:32.656Z,10.28
2019-02-25T08:01:32.686Z,10.22
2019-02-25T08:02:32.635Z,10.15
2019-02-25T08:03:32.623Z,10.04
2019-02-25T08:04:32.615Z,10.28
2019-02-25T08:05:32.612Z,10.47
2019-02-25T08:06:32.619Z,10.59
2019-02-25T08:07:32.595Z,10.39
2019-02-25T08:08:32.574Z,10.39
2019-02-25T08:09:32.563Z,10.44
2019-02-25T08:10:32.557Z,10.36
2019-02-25T08:11:32.590Z,10.36
2019-02-25T08:12:32.539Z,10.09
2019-02-25T08:13:32.518Z,10.21
2019-02-25T08:14:32.541Z,10.28
2019-02-25T08:15:32.504Z,10.43
2019-02-25T08:16:32.494Z,10.81
2019-02-25T08:17:32.483Z,10.98
2019-02-25T08:18:32.470Z,11.06
2019-02-25T08:19:32.496Z,11.14
2019-02-25T08:20:32.451Z,10.95
2019-02-25T08:21:32.461Z,11.19
2019-02-25T08:22:32.433Z,11.49
2019-02-25T08:23:32.421Z,11.50
2019-02-25T08:24:32.407Z,11.65
2019-02-25T08:25:32.392Z,11.56
2019-02-25T08:26:32.384Z,11.29
2019-02-25T08:27:32.398Z,11.34
2019-02-25T08:28:32.667Z,11.67
2019-02-25T08:29:32.348Z,11.54
2019-02-25T08:30:32.347Z,11.86
2019-02-25T08:31:32.331Z,12.20
2019-02-25T08:32:32.360Z,12.21
2019-02-25T08:33:32.305Z,12.06
2019-02-25T08:34:32.301Z,12.05
2019-02-25T08:35:32.297Z,11.93
2019-02-25T08:36:32.278Z,12.24
2019-02-25T08:37:32.298Z,12.19
2019-02-25T08:38:32.270Z,12.24
2019-02-25T08:39:32.247Z,12.13
2019-02-25T08:40:32.283Z,12.27
2019-02-25T08:41:32.238Z,12.31
2019-02-25T08:42:32.208Z,12.56
2019-02-25T08:43:32.209Z,12.34
2019-02-25T08:44:32.192Z,12.51
2019-02-25T08:45:32.187Z,12.45
2019-02-25T08:46:32.200Z,12.51
2019-02-25T08:47:32.200Z,12.69
2019-02-25T08:48:32.153Z,12.70
2019-02-25T08:49:32.144Z,12.96
2019-02-25T08:50:32.146Z,13.06
2019-02-25T08:51:32.131Z,12.67
2019-02-25T08:52:32.140Z,12.51
2019-02-25T08:53:32.113Z,12.85
2019-02-25T08:54:32.090Z,13.40
2019-02-25T08:55:32.071Z,13.33
2019-02-25T08:56:32.067Z,13.30
2019-02-25T08:57:32.101Z,13.27
2019-02-25T08:58:32.052Z,13.69
2019-02-25T08:59:32.033Z,14.06
2019-02-25T09:00:32.074Z,13.94
2019-02-25T09:01:32.021Z,13.56
2019-02-25T09:02:32.037Z,13.69
2019-02-25T09:03:32.004Z,13.79
2019-02-25T09:04:31.982Z,14.06
2019-02-25T09:05:31.962Z,14.38
2019-02-25T09:06:31.960Z,14.42
2019-02-25T09:07:31.985Z,14.42
2019-02-25T09:08:31.952Z,14.39
2019-02-25T09:09:31.928Z,14.44
2019-02-25T09:10:31.946Z,14.32
2019-02-25T09:11:31.908Z,14.34
2019-02-25T09:12:31.893Z,14.14
2019-02-25T09:13:31.887Z,14.16
2019-02-25T09:14:31.871Z,14.50
2019-02-25T09:15:32.600Z,14.67
2019-02-25T09:16:31.871Z,14.46
2019-02-25T09:17:31.880Z,14.49
2019-02-25T09:18:31.834Z,14.28
2019-02-25T09:19:31.816Z,14.13
2019-02-25T09:20:31.819Z,14.28
2019-02-25T09:21:32.227Z,14.67
2019-02-25T09:22:31.786Z,15.06
2019-02-25T09:23:31.804Z,14.75
2019-02-25T09:24:31.771Z,14.86
2019-02-25T09:25:31.761Z,15.15
2019-02-25T09:26:31.743Z,15.12
2019-02-25T09:27:31.766Z,15.41
2019-02-25T09:28:31.731Z,15.66
2019-02-25T09:29:31.715Z,15.96
2019-02-25T09:30:31.709Z,16.30
2019-02-25T09:31:31.725Z,16.53
2019-02-25T09:32:31.717Z,16.37
2019-02-25T09:33:31.675Z,16.52
2019-02-25T09:34:31.712Z,16.65
2019-02-25T09:35:31.653Z,17.14
2019-02-25T09:36:31.637Z,16.95
2019-02-25T09:37:31.664Z,16.95
2019-02-25T09:38:31.620Z,17.28
2019-02-25T09:39:31.607Z,17.43
2019-02-25T09:40:31.616Z,17.44
2019-02-25T09:41:31.589Z,17.33
2019-02-25T09:42:31.620Z,17.13
2019-02-25T09:43:31.567Z,17.30
2019-02-25T09:44:31.569Z,17.54
2019-02-25T09:45:31.567Z,17.33
2019-02-25T09:46:31.577Z,17.67
2019-02-25T09:47:31.568Z,18.06
2019-02-25T09:48:31.542Z,18.17
2019-02-25T09:49:31.504Z,18.47
2019-02-25T09:50:31.490Z,18.44
2019-02-25T09:51:31.474Z,18.29
2019-02-25T09:52:31.511Z,18.55
2019-02-25T09:53:31.455Z,18.39
2019-02-25T09:54:31.449Z,18.31
2019-02-25T09:55:31.433Z,18.29
2019-02-25T09:56:31.428Z,18.58
2019-02-25T09:57:31.440Z,19.10
2019-02-25T09:58:31.410Z,19.11
2019-02-25T09:59:31.386Z,19.23
2019-02-25T10:00:31.395Z,19.23
2019-02-25T10:01:31.365Z,19.39
2019-02-25T10:02:31.399Z,19.32
2019-02-25T10:03:31.358Z,19.18
2019-02-25T10:04:31.332Z,19.01
2019-02-25T10:05:31.323Z,19.08
2019-02-25T10:06:31.380Z,19.48
2019-02-25T10:07:31.301Z,19.20
2019-02-25T10:08:31.306Z,19.48
2019-02-25T10:09:32.492Z,20.18
2019-02-25T10:10:31.275Z,20.62
2019-02-25T10:11:31.861Z,20.77
2019-02-25T10:12:31.393Z,20.72
2019-02-25T10:13:31.856Z,20.80
2019-02-25T10:14:31.850Z,20.95
2019-02-25T10:15:31.222Z,20.59
2019-02-25T10:16:31.867Z,19.86
2019-02-25T10:17:31.419Z,19.43
2019-02-25T10:18:31.188Z,19.68
2019-02-25T10:19:31.838Z,19.43
2019-02-25T10:20:31.226Z,19.60
2019-02-25T10:21:31.819Z,19.43
2019-02-25T10:22:32.811Z,19.69
2019-02-25T10:23:31.815Z,19.87
2019-02-25T10:24:31.132Z,20.06
2019-02-25T10:25:31.312Z,20.77
2019-02-25T10:26:31.102Z,20.72
2019-02-25T10:27:31.133Z,20.28
2019-02-25T10:28:31.091Z,20.18
2019-02-25T10:29:31.076Z,19.94
2019-02-25T10:30:31.094Z,19.91
2019-02-25T10:31:31.047Z,20.31
2019-02-25T10:32:31.049Z,20.99
2019-02-25T10:33:31.025Z,21.19
2019-02-25T10:34:31.049Z,21.63
2019-02-25T10:35:31.008Z,21.94
2019-02-25T10:36:30.995Z,22.17
2019-02-25T10:37:31.016Z,22.72
2019-02-25T10:38:30.975Z,22.99
2019-02-25T10:39:30.972Z,23.07
2019-02-25T10:40:30.951Z,22.27
2019-02-25T10:41:30.943Z,21.30
2019-02-25T10:42:31.550Z,20.79
2019-02-25T10:43:31.866Z,20.64
2019-02-25T10:44:31.890Z,20.77
2019-02-25T10:45:30.914Z,21.05
2019-02-25T10:46:30.896Z,21.64
2019-02-25T10:47:30.876Z,21.83
2019-02-25T10:48:30.909Z,22.07
2019-02-25T10:49:31.327Z,22.32
2019-02-25T10:50:31.594Z,22.19
2019-02-25T10:51:30.835Z,22.06
2019-02-25T10:52:30.865Z,22.20
2019-02-25T10:53:30.811Z,21.91
2019-02-25T10:54:30.802Z,22.01
2019-02-25T10:55:30.792Z,22.17
2019-02-25T10:56:30.818Z,22.28
2019-02-25T10:57:31.436Z,22.74
2019-02-25T10:58:31.723Z,23.26
2019-02-25T10:59:32.227Z,23.27
2019-02-25T11:00:30.738Z,22.72
2019-02-25T11:01:30.726Z,22.68
2019-02-25T11:02:30.757Z,22.94
2019-02-25T11:03:30.735Z,23.04
2019-02-25T11:04:30.696Z,21.95
2019-02-25T11:05:30.820Z,21.59
2019-02-25T11:06:33.418Z,22.10
2019-02-25T11:07:31.250Z,22.52
2019-02-25T11:08:30.690Z,22.52
2019-02-25T11:09:30.643Z,22.41
2019-02-25T11:10:30.631Z,22.35
2019-02-25T11:11:30.623Z,22.17
2019-02-25T11:12:32.164Z,22.19
2019-02-25T11:13:31.968Z,21.64
2019-02-25T11:14:31.229Z,21.56
2019-02-25T11:15:30.584Z,21.85
2019-02-25T11:16:30.572Z,22.57
2019-02-25T11:17:30.557Z,23.26
2019-02-25T11:18:30.572Z,23.76
2019-02-25T11:19:31.111Z,24.19
2019-02-25T11:20:31.752Z,23.95
2019-02-25T11:21:30.516Z,23.77
2019-02-25T11:22:30.531Z,23.64
2019-02-25T11:23:30.526Z,24.12
2019-02-25T11:24:30.485Z,24.64
2019-02-25T11:25:30.484Z,24.64
2019-02-25T11:26:31.129Z,24.63
2019-02-25T11:27:31.308Z,24.88
2019-02-25T11:28:31.843Z,24.79
2019-02-25T11:29:30.430Z,25.12
2019-02-25T11:30:30.421Z,25.68
2019-02-25T11:31:30.452Z,25.64
2019-02-25T11:32:30.408Z,25.17
2019-02-25T11:33:32.586Z,25.06
2019-02-25T11:34:31.629Z,25.32
2019-02-25T11:35:30.367Z,25.57
2019-02-25T11:36:30.368Z,25.06
2019-02-25T11:37:30.340Z,24.54
2019-02-25T11:38:31.295Z,24.53
2019-02-25T11:39:32.524Z,24.61
2019-02-25T11:40:31.151Z,24.08
2019-02-25T11:41:31.729Z,24.50
2019-02-25T11:42:30.302Z,24.97
2019-02-25T11:43:30.302Z,24.97
2019-02-25T11:44:31.277Z,24.64
2019-02-25T11:45:30.308Z,24.56
2019-02-25T11:46:30.250Z,24.52
2019-02-25T11:47:30.302Z,24.56
2019-02-25T11:48:30.232Z,25.05
2019-02-25T11:49:30.239Z,24.82
2019-02-25T11:50:30.214Z,24.20
2019-02-25T11:51:30.238Z,24.56
2019-02-25T11:52:30.194Z,24.83
2019-02-25T11:53:30.176Z,24.54
2019-02-25T11:54:30.194Z,24.44
2019-02-25T11:55:30.165Z,23.70
2019-02-25T11:56:31.203Z,23.86
2019-02-25T11:57:30.135Z,23.82
2019-02-25T11:58:30.169Z,23.64
2019-02-25T11:59:30.773Z,23.97
2019-02-25T12:00:30.115Z,24.54
2019-02-25T12:01:30.095Z,24.49
2019-02-25T12:02:30.085Z,24.17
2019-02-25T12:03:30.114Z,24.10
2019-02-25T12:04:30.063Z,23.60
2019-02-25T12:05:30.058Z,23.97
2019-02-25T12:06:30.041Z,24.27
2019-02-25T12:07:30.039Z,24.14
2019-02-25T12:08:30.053Z,24.31
2019-02-25T12:09:30.014Z,24.82
2019-02-25T12:10:30.001Z,24.75
2019-02-25T12:11:29.999Z,24.14
2019-02-25T12:12:30.011Z,24.26
2019-02-25T12:13:29.970Z,23.65
2019-02-25T12:14:29.986Z,23.71
2019-02-25T12:15:29.943Z,23.94
2019-02-25T12:16:29.941Z,23.67
2019-02-25T12:17:29.968Z,23.46
2019-02-25T12:18:29.921Z,22.93
2019-02-25T12:19:29.935Z,22.69
2019-02-25T12:20:29.902Z,23.09
2019-02-25T12:21:29.883Z,23.67
2019-02-25T12:22:29.876Z,24.07
2019-02-25T12:23:29.864Z,24.35
2019-02-25T12:24:29.886Z,25.06
2019-02-25T12:25:29.845Z,24.98
2019-02-25T12:26:29.839Z,24.17
2019-02-25T12:27:29.825Z,22.53
2019-02-25T12:28:29.812Z,22.72
2019-02-25T12:29:29.843Z,23.29
2019-02-25T12:30:29.805Z,23.64
2019-02-25T12:31:29.781Z,23.90
2019-02-25T12:32:29.790Z,24.08
2019-02-25T12:33:29.766Z,23.71
2019-02-25T12:34:29.791Z,23.68
2019-02-25T12:35:29.742Z,23.77
2019-02-25T12:36:29.729Z,23.92
2019-02-25T12:37:29.712Z,23.95
2019-02-25T12:38:29.834Z,23.61
2019-02-25T12:39:29.727Z,23.38
2019-02-25T12:40:29.690Z,23.12
2019-02-25T12:41:29.684Z,23.39
2019-02-25T12:42:29.668Z,23.98
2019-02-25T12:43:29.659Z,24.16
2019-02-25T12:44:29.683Z,24.42
2019-02-25T12:45:29.645Z,24.73
2019-02-25T12:46:29.663Z,24.69
2019-02-25T12:47:29.616Z,24.71
2019-02-25T12:48:29.603Z,24.90
2019-02-25T12:49:29.621Z,25.24
2019-02-25T12:50:29.588Z,25.27
2019-02-25T12:51:29.581Z,25.22
2019-02-25T12:52:29.564Z,25.05
2019-02-25T12:53:29.557Z,24.41
2019-02-25T12:54:29.576Z,24.14
2019-02-25T12:55:29.532Z,24.53
2019-02-25T12:56:29.522Z,24.64
2019-02-25T12:57:29.514Z,24.90
2019-02-25T12:58:29.496Z,24.91
2019-02-25T12:59:29.742Z,24.85
2019-02-25T13:00:29.495Z,24.97
2019-02-25T13:01:29.466Z,25.56
2019-02-25T13:02:29.458Z,24.88
2019-02-25T13:03:29.446Z,25.09
2019-02-25T13:04:29.457Z,25.38
2019-02-25T13:05:29.428Z,24.63
2019-02-25T13:06:29.409Z,24.50
2019-02-25T13:07:29.406Z,24.87
2019-02-25T13:08:29.387Z,25.32